Murdochville, Canada
Current Conditions -  °F | °C
As of 7:00 AM on Friday 31 Oct 2014 (Local Time) from CYGP Reporting Station
Broken Clouds Broken Clouds  
Wind Chill: -2°   Ceiling: 22000
Heat Index: -2°   Visibility: 15mi
Dew Point: -3°   Wind: 3mph
Humidity: 93%   Direction: 330°NNW
Pressure: 29.98"   Gusts: NA
Location:  48.97°N, 65.52°W
Report Text: CYGP 311100Z 33003KT 15SM SCT025 SCT100 BKN220 M02/M03 A2998 RMK SC3AC1CI1 SLP155
Loading
Personal Weather Stations






























Interactive Weather Map
Tropical Storm Tracking
New forecast layout! Learn more

10-Day Weather Forecast

Advertisements
Track Severe Weather on mobile